createdAt,value
2023-01-12T00:01:40.006Z,98799.34
2023-01-12T00:04:06.979Z,98800.75
2023-01-12T00:06:34.291Z,98798.84
2023-01-12T00:09:06.534Z,98796.22
2023-01-12T00:11:33.530Z,98788.72
2023-01-12T00:14:00.199Z,98790.94
2023-01-12T00:16:36.670Z,98793.53
2023-01-12T00:19:33.080Z,98798.19
2023-01-12T00:22:19.310Z,98803.25
2023-01-12T00:24:48.176Z,98791.84
2023-01-12T00:27:17.741Z,98799.28
2023-01-12T00:29:44.370Z,98793.25
2023-01-12T00:32:18.661Z,98793.16
2023-01-12T00:34:45.509Z,98791.13
2023-01-12T00:37:12.631Z,98789.16
2023-01-12T00:39:42.896Z,98776.84
2023-01-12T00:42:31.841Z,98762.97
2023-01-12T00:45:17.455Z,98768.00
2023-01-12T00:47:44.137Z,98765.38
2023-01-12T00:50:11.006Z,98762.78
2023-01-12T00:52:37.766Z,98759.41
2023-01-12T00:55:04.900Z,98760.94
2023-01-12T00:57:31.536Z,98760.94
2023-01-12T01:00:00.507Z,98764.88
2023-01-12T01:02:28.097Z,98770.84
2023-01-12T01:04:55.013Z,98759.44
2023-01-12T01:07:21.923Z,98765.00
2023-01-12T01:09:49.505Z,98752.31
2023-01-12T01:12:16.336Z,98764.34
2023-01-12T01:14:43.201Z,98750.84
2023-01-12T01:17:09.818Z,98759.19
2023-01-12T01:19:37.113Z,98759.25
2023-01-12T01:22:04.125Z,98756.19
2023-01-12T01:24:30.794Z,98753.44
2023-01-12T01:26:57.422Z,98757.59
2023-01-12T01:29:24.208Z,98763.91
2023-01-12T01:31:51.142Z,98757.84
2023-01-12T01:34:18.066Z,98758.91
2023-01-12T01:36:44.657Z,98758.44
2023-01-12T01:39:11.337Z,98761.31
2023-01-12T01:41:38.502Z,98756.50
2023-01-12T01:44:07.347Z,98753.66
2023-01-12T01:46:53.533Z,98751.59
2023-01-12T01:49:37.287Z,98760.13
2023-01-12T01:52:08.094Z,98755.44
2023-01-12T01:54:38.182Z,98748.56
2023-01-12T01:57:05.965Z,98738.78
2023-01-12T01:59:35.160Z,98739.75
2023-01-12T02:02:02.828Z,98739.09
2023-01-12T02:04:31.070Z,98732.03
2023-01-12T02:06:57.893Z,98735.94
2023-01-12T02:09:26.543Z,98734.72
2023-01-12T02:12:15.638Z,98736.91
2023-01-12T02:15:03.472Z,98724.38
2023-01-12T02:18:22.125Z,98723.97
2023-01-12T02:21:03.647Z,98728.00
2023-01-12T02:23:59.676Z,98716.13
2023-01-12T02:26:43.989Z,98707.59
2023-01-12T02:29:16.610Z,98703.34
2023-01-12T02:32:15.614Z,98707.34
2023-01-12T02:34:42.122Z,98709.53
2023-01-12T02:37:46.090Z,98713.53
2023-01-12T02:40:24.016Z,98704.47
2023-01-12T02:43:15.441Z,98706.38
2023-01-12T02:46:34.644Z,98700.66
2023-01-12T02:49:08.791Z,98699.69
2023-01-12T02:51:39.694Z,98694.22
2023-01-12T02:54:11.128Z,98701.84
2023-01-12T02:56:49.926Z,98694.69
2023-01-12T02:59:21.576Z,98685.19
2023-01-12T03:01:51.323Z,98691.94
2023-01-12T03:04:19.599Z,98699.91
2023-01-12T03:07:06.836Z,98694.56
2023-01-12T03:09:43.805Z,98688.66
2023-01-12T03:12:17.055Z,98702.31
2023-01-12T03:14:48.765Z,98697.16
2023-01-12T03:17:24.557Z,98697.06
2023-01-12T03:19:53.199Z,98687.47
2023-01-12T03:22:20.284Z,98680.41
2023-01-12T03:24:50.928Z,98682.91
2023-01-12T03:27:23.522Z,98686.63
2023-01-12T03:30:00.213Z,98676.03
2023-01-12T03:32:27.259Z,98682.91
2023-01-12T03:34:54.640Z,98680.06
2023-01-12T03:37:34.163Z,98674.13
2023-01-12T03:40:24.077Z,98684.59
2023-01-12T03:43:16.413Z,98674.41
2023-01-12T03:45:52.964Z,98694.53
2023-01-12T03:48:27.677Z,98674.69
2023-01-12T03:50:59.354Z,98674.13
2023-01-12T03:53:26.547Z,98676.47
2023-01-12T03:55:56.676Z,98662.41
2023-01-12T03:58:24.350Z,98668.38
2023-01-12T04:00:51.478Z,98666.44
2023-01-12T04:03:18.524Z,98667.66
2023-01-12T04:05:45.780Z,98666.69
2023-01-12T04:08:15.869Z,98668.91
2023-01-12T04:10:42.603Z,98665.59
2023-01-12T04:13:09.286Z,98660.34
2023-01-12T04:15:42.703Z,98664.47
2023-01-12T04:18:13.021Z,98659.53
2023-01-12T04:20:40.546Z,98658.16
2023-01-12T04:23:07.904Z,98662.28
2023-01-12T04:25:34.801Z,98647.56
2023-01-12T04:28:04.761Z,98651.03
2023-01-12T04:30:32.885Z,98648.00
2023-01-12T04:33:00.998Z,98646.34
2023-01-12T04:35:27.982Z,98640.97
2023-01-12T04:37:54.999Z,98644.13
2023-01-12T04:40:21.738Z,98632.41
2023-01-12T04:43:08.305Z,98639.16
2023-01-12T04:45:39.077Z,98631.31
2023-01-12T04:48:09.617Z,98627.34
2023-01-12T04:50:37.317Z,98623.88
2023-01-12T04:53:06.320Z,98618.78
2023-01-12T04:55:38.877Z,98613.16
2023-01-12T04:58:05.588Z,98617.97
2023-01-12T05:00:32.267Z,98606.28
2023-01-12T05:03:02.379Z,98605.31
2023-01-12T05:05:30.640Z,98610.94
2023-01-12T05:08:20.574Z,98604.06
2023-01-12T05:10:55.106Z,98616.75
2023-01-12T05:13:22.390Z,98605.31
2023-01-12T05:15:49.315Z,98614.53
2023-01-12T05:18:16.113Z,98609.00
2023-01-12T05:20:43.211Z,98608.19
2023-01-12T05:23:09.915Z,98608.88
2023-01-12T05:25:36.714Z,98599.25
2023-01-12T05:28:03.742Z,98600.91
2023-01-12T05:30:31.953Z,98594.28
2023-01-12T05:33:00.316Z,98590.16
2023-01-12T05:35:26.964Z,98582.72
2023-01-12T05:37:56.305Z,98577.03
2023-01-12T05:40:23.025Z,98568.78
2023-01-12T05:43:11.408Z,98573.47
2023-01-12T05:45:38.450Z,98552.41
2023-01-12T05:48:05.723Z,98555.84
2023-01-12T05:50:33.232Z,98551.19
2023-01-12T05:52:59.973Z,98545.09
2023-01-12T05:55:26.871Z,98545.53
2023-01-12T05:57:53.551Z,98540.53
2023-01-12T06:00:20.448Z,98536.44
2023-01-12T06:02:47.174Z,98533.97
2023-01-12T06:05:14.006Z,98533.53
2023-01-12T06:07:40.726Z,98526.50
2023-01-12T06:10:08.194Z,98523.38
2023-01-12T06:12:53.598Z,98515.06
2023-01-12T06:15:20.215Z,98522.50
2023-01-12T06:17:47.200Z,98518.38
2023-01-12T06:20:17.599Z,98528.84
2023-01-12T06:22:45.041Z,98526.75
2023-01-12T06:25:12.679Z,98530.88
2023-01-12T06:27:39.944Z,98534.34
2023-01-12T06:30:07.668Z,98530.34
2023-01-12T06:32:34.948Z,98530.16
2023-01-12T06:35:14.148Z,98515.19
2023-01-12T06:37:45.282Z,98513.78
2023-01-12T06:40:13.147Z,98520.41
2023-01-12T06:42:42.343Z,98511.56
2023-01-12T06:45:10.808Z,98515.97
2023-01-12T06:47:59.330Z,98516.09
2023-01-12T06:50:27.029Z,98523.16
2023-01-12T06:52:55.828Z,98523.03
2023-01-12T06:55:22.946Z,98516.09
2023-01-12T06:57:49.850Z,98513.63
2023-01-12T07:00:16.730Z,98519.56
2023-01-12T07:02:43.459Z,98507.16
2023-01-12T07:05:10.144Z,98496.69
2023-01-12T07:07:39.979Z,98489.47
2023-01-12T07:10:07.298Z,98500.94
2023-01-12T07:12:33.990Z,98483.13
2023-01-12T07:15:00.595Z,98476.28
2023-01-12T07:17:27.288Z,98489.78
2023-01-12T07:19:54.052Z,98478.59
2023-01-12T07:22:20.991Z,98497.06
2023-01-12T07:24:47.620Z,98490.31
2023-01-12T07:27:14.402Z,98498.03
2023-01-12T07:29:41.380Z,98481.22
2023-01-12T07:32:08.227Z,98486.84
2023-01-12T07:34:34.950Z,98487.56
2023-01-12T07:37:01.666Z,98489.53
2023-01-12T07:39:28.316Z,98470.81
2023-01-12T07:42:13.727Z,98487.56
2023-01-12T07:44:40.636Z,98487.31
2023-01-12T07:47:07.512Z,98479.78
2023-01-12T07:49:34.224Z,98481.16
2023-01-12T07:52:00.937Z,98481.00
2023-01-12T07:54:27.723Z,98469.75
2023-01-12T07:56:54.467Z,98466.41
2023-01-12T07:59:21.378Z,98478.00
2023-01-12T08:01:48.151Z,98474.72
2023-01-12T08:04:15.175Z,98464.91
2023-01-12T08:06:41.956Z,98465.75
2023-01-12T08:09:08.750Z,98471.38
2023-01-12T08:11:35.673Z,98467.56
2023-01-12T08:14:03.286Z,98464.81
2023-01-12T08:16:34.193Z,98467.97
2023-01-12T08:19:03.840Z,98464.81
2023-01-12T08:21:34.356Z,98463.31
2023-01-12T08:24:02.374Z,98452.53
2023-01-12T08:26:33.211Z,98460.56
2023-01-12T08:29:07.307Z,98449.78
2023-01-12T08:31:34.487Z,98437.56
2023-01-12T08:34:01.186Z,98454.91
2023-01-12T08:36:30.229Z,98438.25
2023-01-12T08:38:57.977Z,98454.34
2023-01-12T08:41:33.878Z,98444.72
2023-01-12T08:44:10.406Z,98449.13
2023-01-12T08:46:39.809Z,98452.56
2023-01-12T08:49:11.567Z,98454.22
2023-01-12T08:51:43.976Z,98450.78
2023-01-12T08:54:11.906Z,98451.50
2023-01-12T08:56:38.793Z,98445.69
2023-01-12T08:59:05.596Z,98437.84
2023-01-12T09:01:32.656Z,98446.69
2023-01-12T09:03:59.809Z,98450.81
2023-01-12T09:06:37.734Z,98451.91
2023-01-12T09:09:06.663Z,98448.31
2023-01-12T09:11:33.253Z,98444.47
2023-01-12T09:14:00.076Z,98434.84
2023-01-12T09:16:29.234Z,98451.06
2023-01-12T09:18:56.911Z,98443.34
2023-01-12T09:21:25.215Z,98448.31
2023-01-12T09:23:55.577Z,98463.03
2023-01-12T09:26:31.622Z,98453.56
2023-01-12T09:29:02.473Z,98466.50
2023-01-12T09:31:30.694Z,98449.91
2023-01-12T09:33:57.748Z,98464.56
2023-01-12T09:36:29.678Z,98457.53
2023-01-12T09:38:57.299Z,98470.19
2023-01-12T09:41:46.176Z,98475.56
2023-01-12T09:44:41.679Z,98470.47
2023-01-12T09:47:33.182Z,98468.41
2023-01-12T09:50:21.449Z,98463.56
2023-01-12T09:52:55.008Z,98474.19
2023-01-12T09:55:27.057Z,98464.81
2023-01-12T09:58:18.736Z,98458.22
2023-01-12T10:00:53.056Z,98464.13
2023-01-12T10:03:27.335Z,98456.00
2023-01-12T10:05:58.447Z,98457.50
2023-01-12T10:08:38.523Z,98447.31
2023-01-12T10:11:12.518Z,98447.47
2023-01-12T10:14:11.979Z,98449.78
2023-01-12T10:17:16.551Z,98439.31
2023-01-12T10:19:55.473Z,98439.06
2023-01-12T10:22:38.600Z,98447.47
2023-01-12T10:25:15.409Z,98442.50
2023-01-12T10:27:44.555Z,98440.88
2023-01-12T10:30:18.017Z,98437.94
2023-01-12T10:32:45.201Z,98434.53
2023-01-12T10:35:17.267Z,98446.06
2023-01-12T10:37:49.935Z,98440.44
2023-01-12T10:40:22.224Z,98425.97
2023-01-12T10:43:24.245Z,98440.25
2023-01-12T10:46:04.670Z,98437.34
2023-01-12T10:48:31.533Z,98432.66
2023-01-12T10:51:03.162Z,98430.31
2023-01-12T10:53:40.948Z,98429.38
2023-01-12T10:56:13.224Z,98430.47
2023-01-12T10:58:40.999Z,98424.50
2023-01-12T11:01:08.068Z,98426.16
2023-01-12T11:03:41.034Z,98438.53
2023-01-12T11:06:34.264Z,98430.38
2023-01-12T11:09:18.343Z,98429.69
2023-01-12T11:11:45.180Z,98422.25
2023-01-12T11:14:27.037Z,98417.00
2023-01-12T11:16:54.324Z,98417.81
2023-01-12T11:19:30.009Z,98409.28
2023-01-12T11:22:02.459Z,98409.69
2023-01-12T11:24:41.724Z,98405.09
2023-01-12T11:27:36.354Z,98394.97
2023-01-12T11:30:32.326Z,98394.41
2023-01-12T11:33:18.561Z,98388.88
2023-01-12T11:35:53.411Z,98382.81
2023-01-12T11:38:26.123Z,98391.03
2023-01-12T11:40:56.937Z,98393.38
2023-01-12T11:43:49.852Z,98387.84
2023-01-12T11:46:29.192Z,98374.44
2023-01-12T11:49:16.412Z,98383.28
2023-01-12T11:51:43.255Z,98377.06
2023-01-12T11:54:14.760Z,98382.09
2023-01-12T11:57:07.351Z,98378.28
2023-01-12T12:00:01.292Z,98370.94
2023-01-12T12:02:38.273Z,98375.31
2023-01-12T12:05:48.709Z,98356.78
2023-01-12T12:08:42.975Z,98367.50
2023-01-12T12:11:36.037Z,98362.59
2023-01-12T12:14:34.234Z,98357.78
2023-01-12T12:17:11.776Z,98363.72
2023-01-12T12:20:00.808Z,98358.16
2023-01-12T12:22:37.356Z,98354.72
2023-01-12T12:25:19.258Z,98356.03
2023-01-12T12:28:23.364Z,98361.00
2023-01-12T12:31:24.927Z,98364.88
2023-01-12T12:34:33.836Z,98367.03
2023-01-12T12:37:27.030Z,98350.97
2023-01-12T12:39:58.295Z,98363.63
2023-01-12T12:43:10.055Z,98347.59
2023-01-12T12:45:47.848Z,98342.94
2023-01-12T12:48:38.108Z,98350.81
2023-01-12T12:51:07.751Z,98350.66
2023-01-12T12:53:46.363Z,98341.69
2023-01-12T12:56:17.820Z,98333.91
2023-01-12T12:58:55.439Z,98330.53
2023-01-12T13:01:43.745Z,98337.41
2023-01-12T13:04:11.346Z,98343.63
2023-01-12T13:06:44.468Z,98336.72
2023-01-12T13:09:37.642Z,98338.91
2023-01-12T13:12:34.330Z,98333.16
2023-01-12T13:15:24.591Z,98350.19
2023-01-12T13:17:53.530Z,98349.06
2023-01-12T13:20:51.010Z,98331.28
2023-01-12T13:23:41.895Z,98325.06
2023-01-12T13:26:24.053Z,98323.63
2023-01-12T13:29:31.807Z,98318.97
2023-01-12T13:32:26.227Z,98329.31
2023-01-12T13:34:53.141Z,98331.94
2023-01-12T13:37:52.517Z,98322.72
2023-01-12T13:40:30.752Z,98326.19
2023-01-12T13:43:17.400Z,98327.53
2023-01-12T13:46:05.598Z,98330.22
2023-01-12T13:48:35.642Z,98330.31
2023-01-12T13:51:17.243Z,98331.03
2023-01-12T13:53:43.830Z,98324.97
2023-01-12T13:56:20.498Z,98325.56
2023-01-12T13:58:50.587Z,98334.94
2023-01-12T14:01:27.893Z,98331.66
2023-01-12T14:04:23.259Z,98341.16
2023-01-12T14:07:30.891Z,98347.06
2023-01-12T14:10:25.856Z,98345.41
2023-01-12T14:13:10.748Z,98343.47
2023-01-12T14:16:01.359Z,98343.81
2023-01-12T14:18:49.002Z,98344.50
2023-01-12T14:21:28.158Z,98350.34
2023-01-12T14:24:15.482Z,98341.53
2023-01-12T14:26:42.142Z,98345.78
2023-01-12T14:29:11.513Z,98341.53
2023-01-12T14:31:40.667Z,98351.06
2023-01-12T14:34:38.795Z,98352.56
2023-01-12T14:37:10.701Z,98345.41
2023-01-12T14:39:41.317Z,98346.19
2023-01-12T14:42:37.062Z,98343.28
2023-01-12T14:45:39.133Z,98336.41
2023-01-12T14:48:24.217Z,98346.13
2023-01-12T14:51:18.918Z,98347.56
2023-01-12T14:53:47.879Z,98333.47
2023-01-12T14:56:26.963Z,98334.28
2023-01-12T14:58:54.229Z,98341.03
2023-01-12T15:01:33.491Z,98339.91
2023-01-12T15:04:00.509Z,98336.22
2023-01-12T15:06:27.348Z,98338.56
2023-01-12T15:09:00.518Z,98343.34
2023-01-12T15:11:35.193Z,98354.00
2023-01-12T15:14:07.903Z,98345.00
2023-01-12T15:16:54.171Z,98350.69
2023-01-12T15:19:39.461Z,98351.66
2023-01-12T15:22:27.492Z,98349.56
2023-01-12T15:25:14.349Z,98343.94
2023-01-12T15:27:40.991Z,98347.84
2023-01-12T15:30:10.442Z,98343.28
2023-01-12T15:32:48.938Z,98345.03
2023-01-12T15:35:21.354Z,98358.66
2023-01-12T15:37:48.213Z,98358.03
2023-01-12T15:40:15.958Z,98348.22
2023-01-12T15:42:42.785Z,98359.25
2023-01-12T15:45:30.141Z,98353.78
2023-01-12T15:47:56.870Z,98358.66
2023-01-12T15:50:23.952Z,98361.78
2023-01-12T15:52:51.418Z,98359.31
2023-01-12T15:55:20.010Z,98356.03
2023-01-12T15:57:47.752Z,98357.75
2023-01-12T16:00:16.399Z,98360.94
2023-01-12T16:02:45.707Z,98358.94
2023-01-12T16:05:13.498Z,98355.19
2023-01-12T16:07:48.365Z,98357.81
2023-01-12T16:10:16.797Z,98356.03
2023-01-12T16:12:50.642Z,98352.75
2023-01-12T16:15:20.114Z,98356.03
2023-01-12T16:17:47.207Z,98358.50
2023-01-12T16:20:16.923Z,98356.31
2023-01-12T16:22:44.178Z,98348.47
2023-01-12T16:25:11.126Z,98361.19
2023-01-12T16:27:38.584Z,98353.25
2023-01-12T16:30:07.106Z,98344.81
2023-01-12T16:32:33.924Z,98362.50
2023-01-12T16:35:00.519Z,98353.13
2023-01-12T16:37:30.103Z,98349.53
2023-01-12T16:39:56.803Z,98348.41
2023-01-12T16:42:23.425Z,98355.38
2023-01-12T16:44:50.312Z,98351.06
2023-01-12T16:47:19.282Z,98340.31
2023-01-12T16:49:51.471Z,98331.44
2023-01-12T16:52:19.710Z,98329.81
2023-01-12T16:54:46.341Z,98338.19
2023-01-12T16:57:15.214Z,98324.25
2023-01-12T16:59:42.111Z,98328.22
2023-01-12T17:02:11.875Z,98328.59
2023-01-12T17:04:38.919Z,98322.81
2023-01-12T17:07:05.879Z,98315.09
2023-01-12T17:09:37.053Z,98315.78
2023-01-12T17:12:04.014Z,98324.47
2023-01-12T17:14:33.667Z,98332.47
2023-01-12T17:17:04.124Z,98315.78
2023-01-12T17:19:32.453Z,98302.38
2023-01-12T17:22:01.676Z,98311.00
2023-01-12T17:24:30.074Z,98307.59
2023-01-12T17:26:57.107Z,98312.03
2023-01-12T17:29:25.777Z,98308.13
2023-01-12T17:31:53.824Z,98312.56
2023-01-12T17:34:21.233Z,98304.47
2023-01-12T17:36:52.404Z,98303.06
2023-01-12T17:39:19.175Z,98307.59
2023-01-12T17:42:04.677Z,98298.75
2023-01-12T17:44:31.835Z,98311.22
2023-01-12T17:46:58.478Z,98301.75
2023-01-12T17:49:25.162Z,98302.38
2023-01-12T17:51:51.990Z,98310.16
2023-01-12T17:54:18.702Z,98308.94
2023-01-12T17:56:45.796Z,98306.03
2023-01-12T17:59:17.930Z,98310.31
2023-01-12T18:01:45.378Z,98310.31
2023-01-12T18:04:12.529Z,98297.94
2023-01-12T18:06:39.896Z,98308.56
2023-01-12T18:09:06.760Z,98297.59
2023-01-12T18:11:33.672Z,98292.00
2023-01-12T18:14:01.406Z,98294.31
2023-01-12T18:16:29.023Z,98301.56
2023-01-12T18:18:55.962Z,98300.72
2023-01-12T18:21:25.321Z,98303.53
2023-01-12T18:23:52.866Z,98299.41
2023-01-12T18:26:25.322Z,98294.34
2023-01-12T18:28:56.747Z,98288.97
2023-01-12T18:31:26.117Z,98293.56
2023-01-12T18:33:58.597Z,98296.31
2023-01-12T18:36:25.730Z,98299.31
2023-01-12T18:38:54.133Z,98291.91
2023-01-12T18:41:40.478Z,98302.56
2023-01-12T18:44:07.693Z,98299.97
2023-01-12T18:46:54.660Z,98295.41
2023-01-12T18:49:22.944Z,98285.69
2023-01-12T18:52:08.306Z,98285.19
2023-01-12T18:54:44.188Z,98286.84
2023-01-12T18:57:12.117Z,98282.63
2023-01-12T18:59:41.639Z,98284.91
2023-01-12T19:02:11.665Z,98284.38
2023-01-12T19:04:44.189Z,98279.03
2023-01-12T19:07:13.139Z,98264.72
2023-01-12T19:09:39.887Z,98270.31
2023-01-12T19:12:06.805Z,98274.41
2023-01-12T19:14:51.991Z,98266.34
2023-01-12T19:17:27.942Z,98273.56
2023-01-12T19:19:54.958Z,98268.81
2023-01-12T19:22:40.207Z,98273.28
2023-01-12T19:25:25.825Z,98262.13
2023-01-12T19:28:11.073Z,98263.28
2023-01-12T19:30:38.580Z,98265.56
2023-01-12T19:33:08.684Z,98265.84
2023-01-12T19:35:36.892Z,98249.81
2023-01-12T19:38:04.109Z,98253.09
2023-01-12T19:40:44.352Z,98256.69
2023-01-12T19:43:19.177Z,98259.66
2023-01-12T19:45:48.154Z,98261.31
2023-01-12T19:48:16.423Z,98257.69
2023-01-12T19:50:44.305Z,98250.97
2023-01-12T19:53:25.193Z,98248.03
2023-01-12T19:55:52.399Z,98252.81
2023-01-12T19:58:22.039Z,98259.53
2023-01-12T20:00:49.725Z,98250.31
2023-01-12T20:03:18.714Z,98254.28
2023-01-12T20:05:47.659Z,98260.84
2023-01-12T20:08:15.350Z,98253.59
2023-01-12T20:10:42.266Z,98259.66
2023-01-12T20:13:10.536Z,98247.19
2023-01-12T20:15:40.921Z,98255.34
2023-01-12T20:18:08.818Z,98257.31
2023-01-12T20:20:35.942Z,98251.22
2023-01-12T20:23:02.652Z,98248.09
2023-01-12T20:25:29.464Z,98239.25
2023-01-12T20:27:56.066Z,98246.44
2023-01-12T20:30:37.068Z,98235.13
2023-01-12T20:33:05.593Z,98238.56
2023-01-12T20:35:32.720Z,98236.91
2023-01-12T20:37:59.302Z,98234.63
2023-01-12T20:40:26.129Z,98233.16
2023-01-12T20:42:52.903Z,98229.69
2023-01-12T20:45:19.547Z,98224.75
2023-01-12T20:47:46.159Z,98222.81
2023-01-12T20:50:14.274Z,98228.06
2023-01-12T20:52:41.775Z,98217.94
2023-01-12T20:55:08.791Z,98219.69
2023-01-12T20:57:39.172Z,98215.28
2023-01-12T21:00:07.981Z,98221.03
2023-01-12T21:02:35.985Z,98223.03
2023-01-12T21:05:03.177Z,98218.78
2023-01-12T21:07:30.208Z,98223.72
2023-01-12T21:09:56.817Z,98212.38
2023-01-12T21:12:25.280Z,98218.97
2023-01-12T21:14:54.559Z,98225.66
2023-01-12T21:17:21.762Z,98233.88
2023-01-12T21:19:48.645Z,98223.06
2023-01-12T21:22:15.380Z,98224.50
2023-01-12T21:24:42.090Z,98226.66
2023-01-12T21:27:09.043Z,98232.28
2023-01-12T21:29:35.860Z,98217.84
2023-01-12T21:32:02.499Z,98239.66
2023-01-12T21:34:29.198Z,98232.44
2023-01-12T21:36:55.973Z,98237.34
2023-01-12T21:39:22.615Z,98233.59
2023-01-12T21:42:08.048Z,98233.22
2023-01-12T21:44:34.809Z,98234.38
2023-01-12T21:47:01.834Z,98231.59
2023-01-12T21:49:28.475Z,98224.38
2023-01-12T21:51:55.108Z,98226.78
2023-01-12T21:54:22.630Z,98224.16
2023-01-12T21:56:49.365Z,98229.06
2023-01-12T21:59:16.145Z,98218.56
2023-01-12T22:01:42.896Z,98220.84
2023-01-12T22:04:09.739Z,98225.16
2023-01-12T22:06:36.551Z,98209.81
2023-01-12T22:09:03.317Z,98214.56
2023-01-12T22:11:30.397Z,98216.53
2023-01-12T22:13:57.038Z,98209.97
2023-01-12T22:16:23.787Z,98215.38
2023-01-12T22:18:50.769Z,98213.00
2023-01-12T22:21:19.300Z,98209.59
2023-01-12T22:23:46.668Z,98202.41
2023-01-12T22:26:15.160Z,98205.03
2023-01-12T22:28:43.936Z,98202.94
2023-01-12T22:31:12.889Z,98201.34
2023-01-12T22:33:40.044Z,98196.28
2023-01-12T22:36:08.057Z,98200.06
2023-01-12T22:38:34.753Z,98197.69
2023-01-12T22:41:09.144Z,98191.00
2023-01-12T22:43:43.032Z,98187.56
2023-01-12T22:46:23.908Z,98180.16
2023-01-12T22:48:55.725Z,98172.97
2023-01-12T22:51:27.651Z,98180.00
2023-01-12T22:53:55.873Z,98171.50
2023-01-12T22:56:23.009Z,98172.50
2023-01-12T22:58:51.602Z,98172.00
2023-01-12T23:01:20.049Z,98174.75
2023-01-12T23:03:48.467Z,98172.81
2023-01-12T23:06:17.074Z,98173.63
2023-01-12T23:08:45.427Z,98160.84
2023-01-12T23:11:24.369Z,98158.41
2023-01-12T23:13:52.603Z,98157.44
2023-01-12T23:16:19.886Z,98157.50
2023-01-12T23:18:47.455Z,98135.28
2023-01-12T23:21:19.557Z,98151.50
2023-01-12T23:23:48.954Z,98153.47
2023-01-12T23:26:22.944Z,98139.25
2023-01-12T23:28:52.815Z,98144.97
2023-01-12T23:31:21.885Z,98144.13
2023-01-12T23:33:49.203Z,98141.72
2023-01-12T23:36:20.660Z,98134.97
2023-01-12T23:38:47.637Z,98137.59
2023-01-12T23:41:18.510Z,98121.63
2023-01-12T23:43:50.113Z,98116.88
2023-01-12T23:46:17.707Z,98117.91
2023-01-12T23:48:44.594Z,98123.00
2023-01-12T23:51:11.532Z,98127.75
2023-01-12T23:53:38.499Z,98125.81
2023-01-12T23:56:07.548Z,98119.75
2023-01-12T23:58:34.641Z,98116.78
